createdAt,value
2018-01-15T00:01:32.996Z,-1.51
2018-01-15T00:04:00.619Z,-1.53
2018-01-15T00:06:28.132Z,-1.51
2018-01-15T00:08:55.753Z,-1.55
2018-01-15T00:11:23.268Z,-1.42
2018-01-15T00:13:50.808Z,-1.47
2018-01-15T00:16:18.335Z,-1.51
2018-01-15T00:18:45.881Z,-1.49
2018-01-15T00:21:13.404Z,-1.54
2018-01-15T00:23:40.916Z,-1.55
2018-01-15T00:26:08.440Z,-1.58
2018-01-15T00:28:35.996Z,-1.49
2018-01-15T00:31:03.572Z,-1.40
2018-01-15T00:33:31.095Z,-1.40
2018-01-15T00:35:58.613Z,-1.36
2018-01-15T00:38:26.169Z,-1.43
2018-01-15T00:40:53.784Z,-1.43
2018-01-15T00:43:21.396Z,-1.48
2018-01-15T00:45:48.904Z,-1.37
2018-01-15T00:48:16.440Z,-1.51
2018-01-15T00:50:43.957Z,-1.47
2018-01-15T00:53:11.484Z,-1.52
2018-01-15T00:55:39.089Z,-1.45
2018-01-15T00:58:06.623Z,-1.44
2018-01-15T01:00:34.214Z,-1.48
2018-01-15T01:03:01.723Z,-1.43
2018-01-15T01:05:29.256Z,-1.39
2018-01-15T01:07:56.772Z,-1.45
2018-01-15T01:10:24.347Z,-1.53
2018-01-15T01:12:51.860Z,-1.49
2018-01-15T01:15:19.368Z,-1.54
2018-01-15T01:17:46.888Z,-1.54
2018-01-15T01:20:14.468Z,-1.47
2018-01-15T01:22:41.984Z,-1.47
2018-01-15T01:25:09.591Z,-1.50
2018-01-15T01:27:37.172Z,-1.53
2018-01-15T01:30:04.712Z,-1.50
2018-01-15T01:32:32.289Z,-1.55
2018-01-15T01:34:59.814Z,-1.49
2018-01-15T01:37:27.336Z,-1.52
2018-01-15T01:39:54.975Z,-1.46
2018-01-15T01:42:22.497Z,-1.48
2018-01-15T01:44:50.039Z,-1.44
2018-01-15T01:47:17.592Z,-1.39
2018-01-15T01:49:45.124Z,-1.43
2018-01-15T01:52:12.636Z,-1.50
2018-01-15T01:54:40.153Z,-1.43
2018-01-15T01:57:07.779Z,-1.41
2018-01-15T01:59:35.291Z,-1.45
2018-01-15T02:02:02.801Z,-1.44
2018-01-15T02:04:30.344Z,-1.47
2018-01-15T02:06:57.852Z,-1.51
2018-01-15T02:09:25.468Z,-1.39
2018-01-15T02:11:53.028Z,-1.39
2018-01-15T02:14:20.560Z,-1.39
2018-01-15T02:16:48.088Z,-1.40
2018-01-15T02:19:15.614Z,-1.41
2018-01-15T02:21:43.132Z,-1.40
2018-01-15T02:24:10.660Z,-1.37
2018-01-15T02:26:38.264Z,-1.43
2018-01-15T02:29:05.854Z,-1.45
2018-01-15T02:31:33.381Z,-1.50
2018-01-15T02:34:00.903Z,-1.44
2018-01-15T02:36:28.422Z,-1.42
2018-01-15T02:38:56.008Z,-1.46
2018-01-15T02:41:23.538Z,-1.48
2018-01-15T02:43:51.057Z,-1.52
2018-01-15T02:46:18.607Z,-1.49
2018-01-15T02:48:46.123Z,-1.47
2018-01-15T02:51:13.632Z,-1.44
2018-01-15T02:53:41.220Z,-1.49
2018-01-15T02:56:08.737Z,-1.43
2018-01-15T02:58:36.256Z,-1.41
2018-01-15T03:01:03.764Z,-1.41
2018-01-15T03:03:31.285Z,-1.36
2018-01-15T03:05:58.804Z,-1.46
2018-01-15T03:08:26.396Z,-1.39
2018-01-15T03:10:53.923Z,-1.36
2018-01-15T03:13:21.530Z,-1.38
2018-01-15T03:15:49.060Z,-1.37
2018-01-15T03:18:16.636Z,-1.36
2018-01-15T03:20:44.162Z,-1.40
2018-01-15T03:23:11.693Z,-1.37
2018-01-15T03:25:39.228Z,-1.41
2018-01-15T03:28:06.772Z,-1.34
2018-01-15T03:30:34.336Z,-1.29
2018-01-15T03:33:01.861Z,-1.28
2018-01-15T03:35:29.394Z,-1.28
2018-01-15T03:37:56.993Z,-1.32
2018-01-15T03:40:24.553Z,-1.34
2018-01-15T03:42:52.067Z,-1.26
2018-01-15T03:45:19.580Z,-1.21
2018-01-15T03:47:47.166Z,-1.21
2018-01-15T03:50:14.681Z,-1.16
2018-01-15T03:52:42.217Z,-1.12
2018-01-15T03:55:09.744Z,-1.17
2018-01-15T03:57:37.268Z,-1.12
2018-01-15T04:00:04.788Z,-1.19
2018-01-15T04:02:32.308Z,-1.08
2018-01-15T04:04:59.987Z,-1.10
2018-01-15T04:07:27.527Z,-1.03
2018-01-15T04:09:55.040Z,-1.18
2018-01-15T04:12:22.563Z,-1.11
2018-01-15T04:14:50.076Z,-1.09
2018-01-15T04:17:17.608Z,-1.14
2018-01-15T04:19:45.124Z,-1.08
2018-01-15T04:22:12.646Z,-1.08
2018-01-15T04:24:40.188Z,-1.07
2018-01-15T04:27:07.761Z,-1.07
2018-01-15T04:29:35.239Z,-1.05
2018-01-15T04:32:02.795Z,-1.09
2018-01-15T04:34:30.383Z,-1.06
2018-01-15T04:36:57.916Z,-1.13
2018-01-15T04:39:25.439Z,-1.13
2018-01-15T04:41:53.064Z,-1.11
2018-01-15T04:44:20.576Z,-1.06
2018-01-15T04:46:48.096Z,-1.07
2018-01-15T04:49:15.617Z,-1.05
2018-01-15T04:51:43.200Z,-1.01
2018-01-15T04:54:10.728Z,-1.07
2018-01-15T04:56:38.331Z,-1.01
2018-01-15T04:59:05.861Z,-0.98
2018-01-15T05:01:33.379Z,-0.91
2018-01-15T05:04:00.888Z,-0.97
2018-01-15T05:06:28.409Z,-0.94
2018-01-15T05:08:56.076Z,-0.93
2018-01-15T05:11:23.688Z,-0.84
2018-01-15T05:13:51.252Z,-0.86
2018-01-15T05:16:18.772Z,-0.84
2018-01-15T05:18:46.363Z,-0.80
2018-01-15T05:21:13.967Z,-0.77
2018-01-15T05:23:41.483Z,-0.82
2018-01-15T05:26:09.008Z,-0.75
2018-01-15T05:28:36.537Z,-0.82
2018-01-15T05:31:04.060Z,-0.79
2018-01-15T05:33:31.590Z,-0.73
2018-01-15T05:35:59.158Z,-0.74
2018-01-15T05:38:26.664Z,-0.70
2018-01-15T05:40:54.176Z,-0.75
2018-01-15T05:43:21.724Z,-0.72
2018-01-15T05:45:49.252Z,-0.63
2018-01-15T05:48:16.856Z,-0.71
2018-01-15T05:50:44.372Z,-0.75
2018-01-15T05:53:11.881Z,-0.74
2018-01-15T05:55:39.419Z,-0.73
2018-01-15T05:58:07.031Z,-0.73
2018-01-15T06:00:34.544Z,-0.72
2018-01-15T06:03:02.138Z,-0.74
2018-01-15T06:05:29.697Z,-0.73
2018-01-15T06:07:57.220Z,-0.69
2018-01-15T06:10:24.732Z,-0.65
2018-01-15T06:12:52.243Z,-0.67
2018-01-15T06:15:19.833Z,-0.66
2018-01-15T06:17:47.353Z,-0.66
2018-01-15T06:20:14.951Z,-0.63
2018-01-15T06:22:42.459Z,-0.64
2018-01-15T06:25:09.982Z,-0.66
2018-01-15T06:27:37.542Z,-0.66
2018-01-15T06:30:05.062Z,-0.64
2018-01-15T06:32:32.604Z,-0.65
2018-01-15T06:35:00.212Z,-0.72
2018-01-15T06:37:27.740Z,-0.74
2018-01-15T06:39:55.564Z,-0.75
2018-01-15T06:42:23.080Z,-0.80
2018-01-15T06:44:50.608Z,-0.78
2018-01-15T06:47:18.119Z,-0.82
2018-01-15T06:49:45.632Z,-0.82
2018-01-15T06:52:13.252Z,-0.84
2018-01-15T06:54:40.800Z,-0.85
2018-01-15T06:57:08.313Z,-0.86
2018-01-15T06:59:35.926Z,-0.91
2018-01-15T07:02:03.478Z,-0.93
2018-01-15T07:04:30.992Z,-0.97
2018-01-15T07:06:58.596Z,-0.96
2018-01-15T07:09:26.124Z,-1.01
2018-01-15T07:11:53.727Z,-1.00
2018-01-15T07:14:21.256Z,-1.01
2018-01-15T07:16:48.840Z,-1.05
2018-01-15T07:19:16.395Z,-1.04
2018-01-15T07:21:43.913Z,-1.04
2018-01-15T07:24:11.464Z,-1.10
2018-01-15T07:26:38.976Z,-1.10
2018-01-15T07:29:06.509Z,-1.14
2018-01-15T07:31:34.113Z,-1.10
2018-01-15T07:34:01.624Z,-1.14
2018-01-15T07:36:29.154Z,-1.17
2018-01-15T07:38:56.674Z,-1.22
2018-01-15T07:41:24.205Z,-1.16
2018-01-15T07:43:51.729Z,-1.17
2018-01-15T07:46:19.249Z,-1.16
2018-01-15T07:48:46.813Z,-1.21
2018-01-15T07:51:14.328Z,-1.18
2018-01-15T07:53:41.940Z,-1.15
2018-01-15T07:56:09.468Z,-1.17
2018-01-15T07:58:37.061Z,-1.18
2018-01-15T08:01:04.576Z,-1.13
2018-01-15T08:03:32.096Z,-1.10
2018-01-15T08:05:59.633Z,-1.08
2018-01-15T08:08:27.144Z,-1.03
2018-01-15T08:10:54.748Z,-0.94
2018-01-15T08:13:22.318Z,-0.93
2018-01-15T08:15:49.824Z,-0.96
2018-01-15T08:18:17.429Z,-0.93
2018-01-15T08:20:45.013Z,-0.89
2018-01-15T08:23:12.599Z,-0.94
2018-01-15T08:25:40.097Z,-0.80
2018-01-15T08:28:07.612Z,-0.68
2018-01-15T08:30:35.237Z,-0.73
2018-01-15T08:33:02.764Z,-0.70
2018-01-15T08:35:30.358Z,-0.73
2018-01-15T08:37:57.905Z,-0.48
2018-01-15T08:40:25.414Z,-0.53
2018-01-15T08:42:52.946Z,-0.45
2018-01-15T08:45:20.472Z,-0.34
2018-01-15T08:47:47.997Z,-0.23
2018-01-15T08:50:15.531Z,-0.19
2018-01-15T08:52:43.063Z,-0.12
2018-01-15T08:55:10.577Z,0.11
2018-01-15T08:57:38.108Z,0.17
2018-01-15T09:00:05.624Z,0.37
2018-01-15T09:02:33.151Z,0.44
2018-01-15T09:05:00.674Z,0.90
2018-01-15T09:07:28.210Z,1.00
2018-01-15T09:09:55.721Z,1.02
2018-01-15T09:12:23.252Z,1.19
2018-01-15T09:14:50.784Z,1.13
2018-01-15T09:17:18.370Z,1.56
2018-01-15T09:19:45.930Z,1.50
2018-01-15T09:22:13.442Z,1.45
2018-01-15T09:24:40.967Z,1.67
2018-01-15T09:27:08.478Z,1.77
2018-01-15T09:29:36.017Z,2.08
2018-01-15T09:32:03.583Z,1.97
2018-01-15T09:34:31.160Z,2.23
2018-01-15T09:36:58.676Z,2.26
2018-01-15T09:39:26.192Z,2.49
2018-01-15T09:41:53.701Z,2.58
2018-01-15T09:44:21.219Z,2.70
2018-01-15T09:46:48.733Z,3.01
2018-01-15T09:49:16.287Z,3.05
2018-01-15T09:51:43.795Z,2.73
2018-01-15T09:54:11.344Z,3.41
2018-01-15T09:56:38.852Z,3.53
2018-01-15T09:59:06.374Z,3.35
2018-01-15T10:01:33.906Z,3.36
2018-01-15T10:04:01.432Z,3.19
2018-01-15T10:06:28.940Z,3.18
2018-01-15T10:08:56.450Z,3.18
2018-01-15T10:11:24.070Z,3.34
2018-01-15T10:13:51.630Z,3.20
2018-01-15T10:16:19.293Z,3.61
2018-01-15T10:18:46.820Z,3.54
2018-01-15T10:21:14.341Z,3.30
2018-01-15T10:23:41.870Z,3.08
2018-01-15T10:26:09.430Z,3.44
2018-01-15T10:28:36.997Z,3.54
2018-01-15T10:31:04.520Z,3.55
2018-01-15T10:33:32.081Z,3.16
2018-01-15T10:35:59.667Z,3.54
2018-01-15T10:38:27.184Z,3.42
2018-01-15T10:40:54.715Z,3.20
2018-01-15T10:43:22.243Z,3.51
2018-01-15T10:45:49.802Z,3.09
2018-01-15T10:48:17.360Z,2.95
2018-01-15T10:50:44.871Z,2.81
2018-01-15T10:53:12.495Z,2.91
2018-01-15T10:55:40.009Z,3.00
2018-01-15T10:58:07.527Z,3.19
2018-01-15T11:00:40.776Z,3.06
2018-01-15T11:03:08.284Z,3.32
2018-01-15T11:05:35.807Z,3.32
2018-01-15T11:08:03.319Z,3.22
2018-01-15T11:10:30.928Z,3.27
2018-01-15T11:12:58.497Z,3.21
2018-01-15T11:15:26.026Z,3.38
2018-01-15T11:17:53.608Z,3.36
2018-01-15T11:20:21.148Z,3.23
2018-01-15T11:22:48.694Z,3.46
2018-01-15T11:25:16.253Z,3.47
2018-01-15T11:27:43.769Z,3.52
2018-01-15T11:30:11.275Z,3.61
2018-01-15T11:32:38.808Z,3.44
2018-01-15T11:35:06.424Z,3.54
2018-01-15T11:37:33.940Z,3.68
2018-01-15T11:40:01.444Z,3.78
2018-01-15T11:42:29.012Z,3.68
2018-01-15T11:44:56.525Z,3.68
2018-01-15T11:47:24.037Z,3.67
2018-01-15T11:49:51.580Z,3.71
2018-01-15T11:52:19.110Z,3.78
2018-01-15T11:54:46.640Z,3.72
2018-01-15T11:57:14.157Z,3.73
2018-01-15T11:59:41.672Z,3.74
2018-01-15T12:02:09.280Z,3.76
2018-01-15T12:04:36.804Z,3.79
2018-01-15T12:07:04.399Z,3.79
2018-01-15T12:09:31.909Z,3.86
2018-01-15T12:11:59.429Z,3.86
2018-01-15T12:14:26.946Z,3.83
2018-01-15T12:16:54.549Z,3.74
2018-01-15T12:19:22.120Z,3.83
2018-01-15T12:21:49.665Z,3.81
2018-01-15T12:24:17.184Z,3.77
2018-01-15T12:26:44.736Z,3.79
2018-01-15T12:29:12.368Z,3.89
2018-01-15T12:31:40.013Z,3.80
2018-01-15T12:34:07.568Z,3.84
2018-01-15T12:36:35.080Z,3.79
2018-01-15T12:39:03.413Z,3.80
2018-01-15T12:41:30.970Z,3.76
2018-01-15T12:43:58.491Z,3.88
2018-01-15T12:46:26.028Z,3.95
2018-01-15T12:48:53.668Z,4.01
2018-01-15T12:51:21.312Z,4.01
2018-01-15T12:53:48.842Z,4.14
2018-01-15T12:56:16.426Z,4.17
2018-01-15T12:58:43.991Z,4.02
2018-01-15T13:01:11.536Z,4.17
2018-01-15T13:03:39.065Z,4.22
2018-01-15T13:06:07.431Z,4.19
2018-01-15T13:11:44.281Z,4.12
2018-01-15T13:14:11.795Z,4.19
2018-01-15T13:16:39.304Z,4.15
2018-01-15T13:19:06.884Z,4.17
2018-01-15T13:21:34.396Z,4.03
2018-01-15T13:24:01.906Z,4.06
2018-01-15T13:26:29.429Z,4.07
2018-01-15T13:28:56.941Z,4.13
2018-01-15T13:31:24.447Z,4.11
2018-01-15T13:33:51.959Z,4.10
2018-01-15T13:36:19.472Z,4.05
2018-01-15T13:38:46.989Z,4.03
2018-01-15T13:41:14.593Z,4.06
2018-01-15T13:43:42.159Z,4.04
2018-01-15T13:46:09.682Z,4.10
2018-01-15T13:48:37.213Z,4.12
2018-01-15T13:51:04.724Z,4.09
2018-01-15T13:53:32.244Z,4.05
2018-01-15T13:55:59.779Z,4.14
2018-01-15T13:58:27.297Z,4.06
2018-01-15T14:00:54.859Z,4.01
2018-01-15T14:03:22.420Z,4.02
2018-01-15T14:05:49.980Z,3.96
2018-01-15T14:08:17.540Z,3.88
2018-01-15T14:10:45.101Z,3.84
2018-01-15T14:13:12.614Z,3.79
2018-01-15T14:15:40.221Z,3.79
2018-01-15T14:18:07.780Z,3.76
2018-01-15T14:20:35.354Z,3.78
2018-01-15T14:23:02.908Z,3.76
2018-01-15T14:25:30.461Z,3.73
2018-01-15T14:27:57.993Z,3.68
2018-01-15T14:30:25.520Z,3.63
2018-01-15T14:32:53.031Z,3.58
2018-01-15T14:35:20.540Z,3.55
2018-01-15T14:37:48.156Z,3.53
2018-01-15T14:40:15.680Z,3.57
2018-01-15T14:42:43.280Z,3.59
2018-01-15T14:45:10.808Z,3.55
2018-01-15T14:47:38.406Z,3.46
2018-01-15T14:50:05.956Z,3.42
2018-01-15T14:52:33.486Z,3.40
2018-01-15T14:55:01.077Z,3.39
2018-01-15T14:57:28.636Z,3.38
2018-01-15T14:59:56.200Z,3.33
2018-01-15T15:02:23.722Z,3.36
2018-01-15T15:04:51.285Z,3.30
2018-01-15T15:07:18.812Z,3.32
2018-01-15T15:09:46.437Z,3.27
2018-01-15T15:12:13.964Z,3.24
2018-01-15T15:14:41.492Z,3.24
2018-01-15T15:17:09.013Z,3.23
2018-01-15T15:19:36.524Z,3.23
2018-01-15T15:22:04.033Z,3.21
2018-01-15T15:24:31.594Z,3.14
2018-01-15T15:26:59.128Z,3.13
2018-01-15T15:29:26.712Z,3.11
2018-01-15T15:31:54.272Z,3.11
2018-01-15T15:34:21.784Z,3.15
2018-01-15T15:36:49.375Z,3.09
2018-01-15T15:39:16.893Z,3.06
2018-01-15T15:41:44.420Z,3.04
2018-01-15T15:44:11.968Z,3.02
2018-01-15T15:46:39.475Z,2.97
2018-01-15T15:49:06.988Z,2.95
2018-01-15T15:51:34.501Z,2.97
2018-01-15T15:54:02.053Z,2.91
2018-01-15T15:56:29.564Z,2.92
2018-01-15T15:58:57.243Z,2.89
2018-01-15T16:01:24.784Z,2.88
2018-01-15T16:03:52.344Z,2.86
2018-01-15T16:06:19.923Z,2.84
2018-01-15T16:08:47.445Z,2.83
2018-01-15T16:11:15.031Z,2.84
2018-01-15T16:13:42.555Z,2.85
2018-01-15T16:16:10.077Z,2.80
2018-01-15T16:18:37.592Z,2.82
2018-01-15T16:21:05.112Z,2.79
2018-01-15T16:23:32.639Z,2.79
2018-01-15T16:26:00.169Z,2.78
2018-01-15T16:28:27.699Z,2.74
2018-01-15T16:30:55.221Z,2.76
2018-01-15T16:33:22.757Z,2.70
2018-01-15T16:35:50.276Z,2.72
2018-01-15T16:38:17.881Z,2.68
2018-01-15T16:40:45.459Z,2.67
2018-01-15T16:43:13.005Z,2.68
2018-01-15T16:45:40.574Z,2.64
2018-01-15T16:48:08.101Z,2.64
2018-01-15T16:50:35.661Z,2.63
2018-01-15T16:53:03.185Z,2.59
2018-01-15T16:55:30.699Z,2.60
2018-01-15T16:57:58.269Z,2.59
2018-01-15T17:00:25.797Z,2.63
2018-01-15T17:02:53.312Z,2.62
2018-01-15T17:05:20.938Z,2.62
2018-01-15T17:07:48.478Z,2.65
2018-01-15T17:10:15.992Z,2.66
2018-01-15T17:12:43.500Z,2.69
2018-01-15T17:15:11.044Z,2.72
2018-01-15T17:17:38.632Z,2.73
2018-01-15T17:20:06.220Z,2.71
2018-01-15T17:22:33.761Z,2.69
2018-01-15T17:25:01.330Z,2.69
2018-01-15T17:27:28.852Z,2.71
2018-01-15T17:29:56.437Z,2.71
2018-01-15T17:32:23.943Z,2.70
2018-01-15T17:34:51.610Z,2.69
2018-01-15T17:37:19.106Z,2.70
2018-01-15T17:39:46.623Z,2.71
2018-01-15T17:42:14.156Z,2.69
2018-01-15T17:44:41.675Z,2.67
2018-01-15T17:47:09.187Z,2.70
2018-01-15T17:49:36.692Z,2.71
2018-01-15T17:52:04.216Z,2.67
2018-01-15T17:54:31.742Z,2.70
2018-01-15T17:56:59.257Z,2.71
2018-01-15T17:59:26.794Z,2.70
2018-01-15T18:01:54.315Z,2.70
2018-01-15T18:04:21.884Z,2.67
2018-01-15T18:06:49.392Z,2.68
2018-01-15T18:09:17.006Z,2.68
2018-01-15T18:11:44.532Z,2.70
2018-01-15T18:14:12.048Z,2.70
2018-01-15T18:16:39.679Z,2.72
2018-01-15T18:19:07.221Z,2.69
2018-01-15T18:21:34.744Z,2.72
2018-01-15T18:24:02.256Z,2.71
2018-01-15T18:26:29.831Z,2.76
2018-01-15T18:28:57.375Z,2.68
2018-01-15T18:31:24.936Z,2.70
2018-01-15T18:33:52.456Z,2.72
2018-01-15T18:36:19.988Z,2.70
2018-01-15T18:38:47.521Z,2.69
2018-01-15T18:41:15.027Z,2.67
2018-01-15T18:43:42.636Z,2.63
2018-01-15T18:46:10.148Z,2.61
2018-01-15T18:48:37.682Z,2.62
2018-01-15T18:51:05.321Z,2.63
2018-01-15T18:53:32.831Z,2.66
2018-01-15T18:56:00.358Z,2.62
2018-01-15T18:58:27.981Z,2.65
2018-01-15T19:00:55.509Z,2.65
2018-01-15T19:03:23.062Z,2.60
2018-01-15T19:05:50.603Z,2.64
2018-01-15T19:08:18.161Z,2.65
2018-01-15T19:10:45.794Z,2.62
2018-01-15T19:13:13.320Z,2.62
2018-01-15T19:15:40.860Z,2.62
2018-01-15T19:18:08.472Z,2.62
2018-01-15T19:20:36.001Z,2.60
2018-01-15T19:23:03.549Z,2.60
2018-01-15T19:25:31.085Z,2.58
2018-01-15T19:27:58.611Z,2.57
2018-01-15T19:30:26.130Z,2.57
2018-01-15T19:32:53.657Z,2.55
2018-01-15T19:35:22.008Z,2.54
2018-01-15T19:37:49.544Z,2.52
2018-01-15T19:40:17.068Z,2.49
2018-01-15T19:42:44.585Z,2.47
2018-01-15T19:45:17.877Z,2.44
2018-01-15T19:47:50.944Z,2.40
2018-01-15T19:50:24.104Z,2.38
2018-01-15T19:52:57.342Z,2.35
2018-01-15T19:55:30.743Z,2.35
2018-01-15T19:58:03.756Z,2.37
2018-01-15T20:00:36.834Z,2.35
2018-01-15T20:03:10.119Z,2.37
2018-01-15T20:05:43.173Z,2.39
2018-01-15T20:08:16.369Z,2.40
2018-01-15T20:10:47.025Z,2.41
2018-01-15T20:13:14.532Z,2.41
2018-01-15T20:15:42.059Z,2.42
2018-01-15T20:18:09.579Z,2.44
2018-01-15T20:20:37.129Z,2.44
2018-01-15T21:45:01.704Z,2.57
2018-01-15T21:47:29.208Z,2.59
2018-01-15T21:49:56.718Z,2.64
2018-01-15T21:52:24.277Z,2.61
2018-01-15T21:54:51.873Z,2.63
2018-01-15T21:57:19.461Z,2.61
2018-01-15T21:59:47.005Z,2.59
2018-01-15T22:02:14.564Z,2.59
2018-01-15T22:04:42.077Z,2.57
2018-01-15T22:07:09.770Z,2.59
2018-01-15T22:09:37.283Z,2.60
2018-01-15T22:12:04.808Z,2.56
2018-01-15T22:14:32.366Z,2.55
2018-01-15T22:16:59.910Z,2.55
2018-01-15T22:19:27.571Z,2.55
2018-01-15T22:21:55.127Z,2.55
2018-01-15T22:24:22.682Z,2.57
2018-01-15T22:26:50.215Z,2.58
2018-01-15T22:29:17.796Z,2.59
2018-01-15T22:31:45.348Z,2.55
2018-01-15T22:34:12.857Z,2.56
2018-01-15T22:36:40.370Z,2.51
2018-01-15T22:39:07.932Z,2.50
2018-01-15T22:41:35.457Z,2.45
2018-01-15T22:44:02.972Z,2.45
2018-01-15T22:46:30.477Z,2.42
2018-01-15T22:48:57.996Z,2.40
2018-01-15T22:51:25.524Z,2.43
2018-01-15T22:53:53.033Z,2.42
2018-01-15T22:56:20.660Z,2.44
2018-01-15T22:58:48.233Z,2.47
2018-01-15T23:01:15.739Z,2.49
2018-01-15T23:03:43.265Z,2.45
2018-01-15T23:06:10.846Z,2.45
2018-01-15T23:08:38.431Z,2.47
2018-01-15T23:11:06.018Z,2.47
2018-01-15T23:13:33.583Z,2.49
2018-01-15T23:16:01.149Z,2.50
2018-01-15T23:18:28.665Z,2.51
2018-01-15T23:20:56.181Z,2.49
2018-01-15T23:23:23.827Z,2.53
2018-01-15T23:25:51.376Z,2.54
2018-01-15T23:28:18.900Z,2.61
2018-01-15T23:30:46.496Z,2.54
2018-01-15T23:33:14.017Z,2.53
2018-01-15T23:35:41.529Z,2.52
2018-01-15T23:38:09.037Z,2.48
2018-01-15T23:40:36.548Z,2.51
2018-01-15T23:43:04.062Z,2.46
2018-01-15T23:45:31.613Z,2.43
2018-01-15T23:47:59.125Z,2.44
2018-01-15T23:50:26.633Z,2.41
2018-01-15T23:52:54.219Z,2.39
2018-01-15T23:55:21.728Z,2.35
2018-01-15T23:57:49.237Z,2.37
